Time;durP1;ratioP1;P1;durP2;ratioP2;P2;SDS_P1;SDS_P2;PMS_P1;PMS_P2;Temp;Humidity;BMP_temperature;BMP_pressure;BME280_temperature;BME280_humidity;BME280_pressure;Samples;Min_cycle;Max_cycle;Signal;HPM_P1;HPM_P2
2022/04/14 00:01:22;;;;;;;63.20;43.42;;;13.00;99.90;;;;;;5073839;28;20032;-80
2022/04/14 00:03:48;;;;;;;40.92;29.65;;;13.10;99.90;;;;;;5055442;28;20119;-78
2022/04/14 00:06:13;;;;;;;37.65;27.73;;;13.10;99.90;;;;;;5073437;28;20036;-79
2022/04/14 00:08:39;;;;;;;33.88;26.77;;;13.10;99.90;;;;;;5055438;28;20366;-79
2022/04/14 00:11:05;;;;;;;36.85;28.10;;;13.10;99.90;;;;;;5073606;28;20435;-79
2022/04/14 00:13:31;;;;;;;40.30;29.73;;;12.70;99.90;;;;;;5073244;28;20017;-77
2022/04/14 00:15:57;;;;;;;35.78;26.52;;;12.50;99.90;;;;;;5073462;28;20491;-80
2022/04/14 00:18:22;;;;;;;41.45;25.88;;;12.60;99.90;;;;;;5073377;28;20062;-79
2022/04/14 00:20:48;;;;;;;38.80;27.90;;;12.60;99.90;;;;;;5073278;28;20126;-80
2022/04/14 00:23:14;;;;;;;38.55;26.90;;;12.90;99.90;;;;;;5073406;28;20051;-80
2022/04/14 00:25:39;;;;;;;39.25;29.17;;;12.90;99.90;;;;;;5073034;28;20033;-79
2022/04/14 00:28:05;;;;;;;42.03;28.60;;;12.90;99.90;;;;;;5055185;28;20025;-80
2022/04/14 00:30:31;;;;;;;42.78;31.73;;;13.00;99.90;;;;;;5072964;28;20059;-79
2022/04/14 00:32:57;;;;;;;40.47;28.20;;;13.10;99.90;;;;;;5055371;28;20103;-79
2022/04/14 00:35:22;;;;;;;42.38;28.17;;;12.80;99.90;;;;;;5072959;28;20438;-78
2022/04/14 00:37:48;;;;;;;45.80;31.40;;;12.90;99.90;;;;;;5055263;28;20099;-79
2022/04/14 00:40:14;;;;;;;45.35;29.95;;;12.90;99.90;;;;;;5073039;28;20107;-79
2022/04/14 00:42:40;;;;;;;39.67;29.33;;;12.90;99.90;;;;;;5072741;28;20029;-78
2022/04/14 00:45:07;;;;;;;42.08;28.02;;;12.90;99.90;;;;;;5072896;28;20488;-79
2022/04/14 00:47:34;;;;;;;37.33;27.80;;;13.00;99.90;;;;;;5072788;28;20115;-75
2022/04/14 00:50:01;;;;;;;39.05;29.17;;;13.00;99.90;;;;;;5053782;28;20052;-76
2022/04/14 00:52:27;;;;;;;38.92;29.23;;;13.00;99.90;;;;;;5052852;28;20021;-78
2022/04/14 00:54:52;;;;;;;41.25;30.63;;;13.10;99.90;;;;;;5052808;28;20025;-73
2022/04/14 00:57:18;;;;;;;39.45;29.33;;;13.00;99.90;;;;;;5052661;28;20036;-73
2022/04/14 00:59:44;;;;;;;38.05;28.27;;;13.00;99.90;;;;;;5052775;28;20059;-76
2022/04/14 01:02:11;;;;;;;36.30;27.80;;;12.80;99.90;;;;;;5054775;28;20032;-77
2022/04/14 01:04:37;;;;;;;36.33;27.23;;;12.80;99.90;;;;;;5072630;28;20028;-76
2022/04/14 01:07:06;;;;;;;40.55;27.80;;;12.80;99.90;;;;;;5072760;28;20051;-74
2022/04/14 01:09:34;;;;;;;37.22;27.88;;;13.00;99.90;;;;;;5054463;28;20039;-80
2022/04/14 01:12:00;;;;;;;38.60;27.85;;;12.90;99.90;;;;;;5072759;28;20037;-80
2022/04/14 01:14:34;;;;;;;38.63;27.83;;;12.80;99.90;;;;;;5072819;28;20025;-80
2022/04/14 01:17:02;;;;;;;42.97;29.88;;;12.90;99.90;;;;;;5072755;28;20564;-80
2022/04/14 01:19:28;;;;;;;40.97;30.33;;;13.00;99.90;;;;;;5054864;28;20032;-79
2022/04/14 01:22:21;;;;;;;38.92;29.05;;;12.80;99.90;;;;;;5072585;28;20028;-76
2022/04/14 01:24:47;;;;;;;40.22;29.55;;;12.70;99.90;;;;;;5072552;28;20372;-75
2022/04/14 01:27:13;;;;;;;39.10;31.42;;;12.60;99.90;;;;;;5054760;28;20048;-75
2022/04/14 01:29:39;;;;;;;38.78;29.17;;;12.30;99.90;;;;;;5072635;28;20028;-76
2022/04/14 01:32:05;;;;;;;47.33;30.60;;;12.20;99.90;;;;;;5072581;28;20024;-74
2022/04/14 01:34:31;;;;;;;41.63;30.92;;;12.30;99.90;;;;;;5072430;28;20024;-78
2022/04/14 01:37:00;;;;;;;39.38;29.48;;;12.30;99.90;;;;;;5072530;28;20465;-80
2022/04/14 01:39:27;;;;;;;40.80;28.40;;;12.00;99.90;;;;;;5072352;28;20082;-79
2022/04/14 01:41:53;;;;;;;43.05;29.55;;;11.70;99.90;;;;;;5072319;28;20039;-79
2022/04/14 01:44:19;;;;;;;39.97;30.20;;;12.10;99.90;;;;;;5072460;28;20107;-79
2022/04/14 01:46:45;;;;;;;47.80;31.20;;;12.20;99.90;;;;;;5072160;28;20550;-80
2022/04/14 01:49:11;;;;;;;46.60;33.00;;;12.30;99.90;;;;;;5054485;28;20487;-79
2022/04/14 01:51:37;;;;;;;49.50;32.35;;;12.20;99.90;;;;;;5072237;28;20067;-80
2022/04/14 01:54:04;;;;;;;48.75;33.28;;;12.30;99.90;;;;;;5072183;28;20497;-79
2022/04/14 01:56:30;;;;;;;47.85;33.17;;;12.40;99.90;;;;;;5072286;28;20111;-79
2022/04/14 01:58:57;;;;;;;49.95;33.70;;;12.40;99.90;;;;;;5072392;28;20040;-80
2022/04/14 02:01:23;;;;;;;49.03;32.75;;;12.50;99.90;;;;;;5072218;28;20477;-73
2022/04/14 02:03:49;;;;;;;44.40;32.60;;;12.50;99.90;;;;;;5054109;28;20415;-79
2022/04/14 02:06:15;;;;;;;45.45;31.98;;;12.50;99.90;;;;;;5072018;28;20036;-80
2022/04/14 02:08:42;;;;;;;47.20;31.75;;;12.40;99.90;;;;;;5071942;28;20105;-79
2022/04/14 02:11:08;;;;;;;41.00;29.05;;;12.40;99.90;;;;;;5072473;28;20032;-79
2022/04/14 02:13:34;;;;;;;39.15;29.05;;;12.30;99.90;;;;;;5074113;28;20060;-78
2022/04/14 02:15:59;;;;;;;43.50;29.92;;;12.20;99.90;;;;;;5075659;28;20063;-79
2022/04/14 02:18:26;;;;;;;42.40;29.95;;;12.10;99.90;;;;;;5057800;28;20028;-80
2022/04/14 02:20:52;;;;;;;40.60;28.48;;;11.90;99.90;;;;;;5075738;28;20021;-79
2022/04/14 02:23:18;;;;;;;40.13;28.52;;;11.70;99.90;;;;;;5075122;28;20119;-79
2022/04/14 02:25:45;;;;;;;42.40;27.80;;;11.90;99.90;;;;;;5075591;28;20032;-76
2022/04/14 02:28:11;;;;;;;41.00;29.52;;;11.90;99.90;;;;;;5075375;28;20078;-79
2022/04/14 02:30:37;;;;;;;35.75;27.77;;;11.90;99.90;;;;;;5075665;28;20024;-74
2022/04/14 02:33:03;;;;;;;38.13;27.38;;;11.90;99.90;;;;;;5075449;28;20024;-80
2022/04/14 02:35:29;;;;;;;46.05;29.75;;;12.00;99.90;;;;;;5075304;28;20090;-79
2022/04/14 02:37:56;;;;;;;36.30;26.92;;;12.10;99.90;;;;;;5075060;28;20381;-77
2022/04/14 02:40:24;;;;;;;39.63;28.23;;;12.00;99.90;;;;;;5075337;28;20504;-80
2022/04/14 02:42:50;;;;;;;42.78;28.02;;;11.80;99.90;;;;;;5075104;28;20033;-79
2022/04/14 02:45:16;;;;;;;41.83;28.50;;;11.50;99.90;;;;;;5075236;28;20017;-79
2022/04/14 02:47:42;;;;;;;43.95;30.67;;;11.20;99.90;;;;;;5074740;28;20046;-79
2022/04/14 02:50:09;;;;;;;48.13;33.63;;;11.20;99.90;;;;;;5075392;28;20380;-77
2022/04/14 02:52:34;;;;;;;49.03;33.50;;;11.00;99.90;;;;;;5056812;28;20112;-79
2022/04/14 02:55:00;;;;;;;50.83;34.75;;;10.80;99.90;;;;;;5075123;28;20108;-79
2022/04/14 02:57:26;;;;;;;54.25;34.22;;;10.70;99.90;;;;;;5074920;28;20055;-79
2022/04/14 02:59:51;;;;;;;51.10;33.10;;;10.70;99.90;;;;;;5074908;28;20440;-79
2022/04/14 03:02:17;;;;;;;52.25;34.55;;;10.60;99.90;;;;;;5074950;28;20111;-79
2022/04/14 03:04:43;;;;;;;54.08;33.85;;;10.60;99.90;;;;;;5074685;28;20108;-80
2022/04/14 03:07:08;;;;;;;45.88;34.05;;;10.50;99.90;;;;;;5074616;28;20534;-79
2022/04/14 03:09:34;;;;;;;42.35;31.25;;;10.50;99.90;;;;;;5074776;28;20106;-79
2022/04/14 03:12:00;;;;;;;41.33;29.65;;;10.70;99.90;;;;;;5074618;28;20056;-78
2022/04/14 03:14:26;;;;;;;42.75;28.13;;;10.60;99.90;;;;;;5074710;28;20048;-80
2022/04/14 03:16:51;;;;;;;37.10;27.05;;;10.60;99.90;;;;;;5074652;28;20435;-80
2022/04/14 03:19:17;;;;;;;46.10;29.65;;;10.60;99.90;;;;;;5074647;28;20058;-80
2022/04/14 03:21:43;;;;;;;41.10;28.85;;;10.60;99.90;;;;;;5074243;28;20029;-79
2022/04/14 03:24:09;;;;;;;44.28;29.73;;;10.70;99.90;;;;;;5074288;28;20027;-80
2022/04/14 03:26:35;;;;;;;45.72;30.20;;;10.90;99.90;;;;;;5074569;28;20119;-80
2022/04/14 03:29:00;;;;;;;44.10;32.63;;;10.90;99.90;;;;;;5074188;28;20035;-80
2022/04/14 03:31:26;;;;;;;47.03;30.30;;;10.90;99.90;;;;;;5056925;28;20032;-79
2022/04/14 03:33:52;;;;;;;37.90;27.90;;;10.70;99.90;;;;;;5056204;28;20021;-79
2022/04/14 03:36:17;;;;;;;40.85;28.63;;;10.60;99.90;;;;;;5074311;28;20045;-79
2022/04/14 03:38:43;;;;;;;47.08;28.63;;;10.70;99.90;;;;;;5074221;28;20108;-79
2022/04/14 03:41:09;;;;;;;45.13;28.02;;;10.80;99.90;;;;;;5056228;28;20060;-79
2022/04/14 03:43:35;;;;;;;36.97;28.20;;;10.90;99.90;;;;;;5073911;28;20495;-78
2022/04/14 03:46:02;;;;;;;35.92;25.83;;;10.70;99.90;;;;;;5074092;28;20111;-80
2022/04/14 03:48:28;;;;;;;37.17;26.75;;;10.50;99.90;;;;;;5073836;28;20036;-78
2022/04/14 03:50:54;;;;;;;38.60;26.23;;;10.40;99.90;;;;;;5055875;28;20047;-76
2022/04/14 03:53:19;;;;;;;39.67;26.65;;;10.30;99.90;;;;;;5073589;28;20012;-73
2022/04/14 03:55:48;;;;;;;42.38;27.30;;;10.40;99.90;;;;;;5073788;28;20056;-73
2022/04/14 03:58:15;;;;;;;39.50;27.50;;;10.60;99.90;;;;;;5073892;28;20060;-76
2022/04/14 04:00:41;;;;;;;35.22;25.02;;;10.70;99.90;;;;;;5073715;28;20016;-78
2022/04/14 04:03:12;;;;;;;35.33;25.58;;;10.70;99.90;;;;;;5073560;28;20392;-78
2022/04/14 04:05:38;;;;;;;36.55;24.83;;;10.30;99.90;;;;;;5073173;28;20045;-79
2022/04/14 04:08:07;;;;;;;36.10;23.95;;;10.20;99.90;;;;;;5073636;28;20056;-77
2022/04/14 04:10:33;;;;;;;36.20;25.60;;;10.30;99.90;;;;;;5055824;28;20020;-79
2022/04/14 04:12:59;;;;;;;35.63;25.67;;;10.40;99.90;;;;;;5073391;28;20354;-80
2022/04/14 04:15:24;;;;;;;34.05;25.10;;;10.50;99.90;;;;;;5073567;28;20116;-79
2022/04/14 04:17:53;;;;;;;35.53;24.63;;;10.50;99.90;;;;;;5073532;28;20417;-79
2022/04/14 04:20:20;;;;;;;34.47;25.00;;;10.60;99.90;;;;;;5072958;28;20473;-80
2022/04/14 04:22:46;;;;;;;31.48;24.27;;;10.50;99.90;;;;;;5055743;28;20425;-77
2022/04/14 04:25:11;;;;;;;37.22;24.48;;;10.50;99.90;;;;;;5073060;28;20113;-79
2022/04/14 04:27:38;;;;;;;40.78;23.67;;;10.50;99.90;;;;;;5073316;28;20036;-79
2022/04/14 04:30:08;;;;;;;39.97;25.38;;;10.40;99.90;;;;;;5055154;28;20024;-79
2022/04/14 04:32:34;;;;;;;41.42;22.85;;;10.30;99.90;;;;;;5073167;28;20039;-80
2022/04/14 04:35:01;;;;;;;38.28;24.40;;;10.50;99.90;;;;;;5073011;28;20029;-78
2022/04/14 04:37:27;;;;;;;34.08;23.63;;;10.30;99.90;;;;;;5072884;28;20032;-79
2022/04/14 04:39:52;;;;;;;32.45;23.88;;;10.20;99.90;;;;;;5072779;28;20027;-79
2022/04/14 04:42:18;;;;;;;34.60;25.15;;;10.00;99.90;;;;;;5073038;28;20067;-78
2022/04/14 04:44:44;;;;;;;35.00;23.05;;;10.10;99.90;;;;;;5055151;28;20043;-80
2022/04/14 04:47:09;;;;;;;35.78;25.98;;;10.30;99.90;;;;;;5054668;28;20040;-77
2022/04/14 04:49:35;;;;;;;39.13;26.77;;;10.30;99.90;;;;;;5073013;28;20028;-79
2022/04/14 04:52:01;;;;;;;42.47;28.67;;;10.40;99.90;;;;;;5073051;28;20533;-79
2022/04/14 04:54:27;;;;;;;52.45;29.63;;;10.40;99.90;;;;;;5055457;28;20442;-79
2022/04/14 04:56:53;;;;;;;43.72;28.48;;;10.40;99.90;;;;;;5072953;28;20020;-79
2022/04/14 04:59:18;;;;;;;39.78;26.73;;;10.20;99.90;;;;;;5072985;28;20024;-79
2022/04/14 05:01:44;;;;;;;38.78;25.85;;;10.20;99.90;;;;;;5072641;28;20392;-79
2022/04/14 05:04:11;;;;;;;44.95;27.70;;;10.10;99.90;;;;;;5072467;28;20016;-79
2022/04/14 05:06:37;;;;;;;40.88;27.33;;;10.20;99.90;;;;;;5072646;28;20044;-79
2022/04/14 05:09:04;;;;;;;46.83;28.98;;;10.20;99.90;;;;;;5072771;28;20062;-76
2022/04/14 05:11:29;;;;;;;45.13;27.38;;;10.20;99.90;;;;;;5072617;28;20020;-77
2022/04/14 05:13:55;;;;;;;36.80;25.02;;;10.20;99.90;;;;;;5072653;28;20107;-78
2022/04/14 05:16:21;;;;;;;36.17;23.55;;;10.20;99.90;;;;;;5072367;28;20025;-79
2022/04/14 05:18:46;;;;;;;35.22;22.65;;;10.20;99.90;;;;;;5072780;28;20105;-79
2022/04/14 05:21:12;;;;;;;31.88;21.55;;;10.20;99.90;;;;;;5072458;28;20373;-79
2022/04/14 05:23:38;;;;;;;32.80;20.55;;;10.20;99.90;;;;;;5072469;28;20032;-79
2022/04/14 05:26:04;;;;;;;41.55;20.73;;;10.20;99.90;;;;;;5072480;28;20033;-79
2022/04/14 05:28:29;;;;;;;32.38;20.08;;;10.20;99.90;;;;;;5072764;28;20035;-79
2022/04/14 05:30:55;;;;;;;31.90;20.08;;;10.30;99.90;;;;;;5072187;28;20025;-79
2022/04/14 05:33:21;;;;;;;30.90;19.27;;;10.20;99.90;;;;;;5054564;28;20376;-79
2022/04/14 05:35:46;;;;;;;28.75;20.25;;;10.40;99.90;;;;;;5072353;28;20025;-79
2022/04/14 05:38:12;;;;;;;30.08;20.38;;;10.40;99.90;;;;;;5072542;28;20036;-79
2022/04/14 05:40:41;;;;;;;35.70;21.85;;;10.60;99.90;;;;;;5072386;28;20025;-80
2022/04/14 05:43:17;;;;;;;32.45;22.33;;;10.60;99.90;;;;;;5072371;28;20040;-79
2022/04/14 05:45:48;;;;;;;34.25;21.90;;;10.70;99.90;;;;;;5072564;28;20029;-80
2022/04/14 05:48:15;;;;;;;35.40;21.60;;;10.50;99.90;;;;;;5073710;28;20058;-80
2022/04/14 05:50:42;;;;;;;32.42;21.80;;;10.30;99.90;;;;;;5076354;28;20033;-79
2022/04/14 05:53:08;;;;;;;40.67;24.80;;;10.30;99.90;;;;;;5076074;28;20032;-80
2022/04/14 05:55:34;;;;;;;37.92;24.48;;;10.40;99.90;;;;;;5076631;28;20354;-79
2022/04/14 05:58:00;;;;;;;34.28;21.80;;;10.30;99.90;;;;;;5057870;28;20460;-80
2022/04/14 06:00:25;;;;;;;41.47;25.10;;;10.50;99.90;;;;;;5075948;28;20074;-80
2022/04/14 06:02:51;;;;;;;35.28;23.92;;;10.40;99.90;;;;;;5058097;28;20133;-80
2022/04/14 06:05:17;;;;;;;37.72;25.77;;;10.60;99.90;;;;;;5057821;28;20102;-79
2022/04/14 06:07:42;;;;;;;41.55;25.27;;;10.70;99.90;;;;;;5075877;28;20039;-79
2022/04/14 06:10:08;;;;;;;40.45;23.90;;;11.00;99.90;;;;;;5076596;28;20115;-79
2022/04/14 06:12:34;;;;;;;46.03;25.92;;;10.90;99.90;;;;;;5076208;28;20031;-80
2022/04/14 06:14:59;;;;;;;35.92;26.58;;;11.20;99.90;;;;;;5076273;28;20016;-79
2022/04/14 06:17:25;;;;;;;37.20;25.95;;;11.40;99.90;;;;;;5075744;28;20027;-80
2022/04/14 06:19:51;;;;;;;41.70;27.00;;;11.50;99.90;;;;;;5075820;28;20101;-79
2022/04/14 06:22:16;;;;;;;39.38;24.70;;;11.70;99.90;;;;;;5075587;28;20024;-79
2022/04/14 06:24:42;;;;;;;40.35;24.77;;;11.70;99.90;;;;;;5076009;28;20354;-80
2022/04/14 06:27:08;;;;;;;46.15;24.67;;;11.40;99.90;;;;;;5075682;28;20477;-81
2022/04/14 06:29:34;;;;;;;39.33;24.13;;;11.60;99.90;;;;;;5075552;28;20029;-79
2022/04/14 06:31:59;;;;;;;40.92;23.05;;;11.60;99.90;;;;;;5075393;28;20032;-77
2022/04/14 06:34:25;;;;;;;41.63;23.17;;;11.80;99.90;;;;;;5075342;28;20078;-78
2022/04/14 06:36:51;;;;;;;31.83;21.30;;;11.70;99.90;;;;;;5075574;28;20031;-77
2022/04/14 06:39:16;;;;;;;33.85;20.05;;;11.70;99.90;;;;;;5057738;28;20040;-80
2022/04/14 06:41:42;;;;;;;31.88;19.88;;;11.60;99.90;;;;;;5075742;28;20024;-80
2022/04/14 06:44:10;;;;;;;35.20;20.75;;;11.60;99.90;;;;;;5057301;28;20021;-77
2022/04/14 06:46:37;;;;;;;29.13;19.55;;;11.60;99.90;;;;;;5075700;28;20068;-77
2022/04/14 06:49:03;;;;;;;34.33;20.05;;;11.80;99.90;;;;;;5074936;28;20036;-78
2022/04/14 06:51:29;;;;;;;38.40;19.70;;;11.90;99.90;;;;;;5076037;28;20031;-76
2022/04/14 06:53:55;;;;;;;33.83;18.98;;;11.90;99.90;;;;;;5078271;28;20033;-75
2022/04/14 06:56:21;;;;;;;33.80;17.80;;;12.00;99.90;;;;;;5078678;28;20032;-77
2022/04/14 06:58:46;;;;;;;32.28;18.75;;;12.10;99.90;;;;;;5058816;28;20042;-79
2022/04/14 07:01:12;;;;;;;37.67;18.60;;;12.20;99.90;;;;;;5075368;28;20384;-79
2022/04/14 07:03:38;;;;;;;41.78;19.38;;;12.10;99.90;;;;;;5075027;28;20025;-80
2022/04/14 07:06:04;;;;;;;39.42;19.58;;;12.20;99.90;;;;;;5077761;28;20045;-81
2022/04/14 07:08:33;;;;;;;39.72;19.05;;;12.30;99.90;;;;;;5078248;28;20035;-78
2022/04/14 07:10:59;;;;;;;35.80;19.30;;;12.40;99.90;;;;;;5076402;28;20408;-80
2022/04/14 07:13:24;;;;;;;31.58;18.45;;;12.50;99.90;;;;;;5074632;28;20031;-81
2022/04/14 07:15:50;;;;;;;36.75;19.45;;;12.50;99.90;;;;;;5074873;28;20020;-80
2022/04/14 07:18:16;;;;;;;36.58;16.85;;;12.70;99.90;;;;;;5074894;28;20471;-80
2022/04/14 07:20:44;;;;;;;33.63;18.38;;;12.60;99.90;;;;;;5076085;28;20496;-79
2022/04/14 07:23:11;;;;;;;30.27;16.75;;;12.70;99.90;;;;;;5075175;28;20071;-81
2022/04/14 07:25:37;;;;;;;32.33;17.55;;;13.00;99.90;;;;;;5058447;28;20393;-80
2022/04/14 07:28:03;;;;;;;31.17;16.50;;;13.00;99.90;;;;;;5076059;28;20103;-80
2022/04/14 07:30:29;;;;;;;35.70;17.45;;;13.50;99.90;;;;;;5075453;28;20465;-79
2022/04/14 07:32:55;;;;;;;34.40;17.02;;;13.40;99.90;;;;;;5057070;28;20029;-80
2022/04/14 07:35:22;;;;;;;29.35;15.43;;;13.60;99.90;;;;;;5077159;28;20028;-80
2022/04/14 07:37:49;;;;;;;24.98;16.48;;;13.60;99.90;;;;;;5076518;28;20056;-80
2022/04/14 07:40:15;;;;;;;29.00;15.90;;;13.80;99.90;;;;;;5077372;28;20021;-81
2022/04/14 07:42:43;;;;;;;31.88;16.77;;;14.00;99.90;;;;;;5075445;28;20031;-79
2022/04/14 07:45:10;;;;;;;29.80;15.07;;;13.90;99.90;;;;;;5075982;28;20373;-80
2022/04/14 07:47:37;;;;;;;31.92;16.40;;;14.00;99.90;;;;;;5059241;28;20017;-80
2022/04/14 07:50:04;;;;;;;30.13;15.77;;;13.90;99.90;;;;;;5075697;28;20068;-77
2022/04/14 07:52:30;;;;;;;32.28;15.30;;;14.20;99.90;;;;;;5076042;28;20488;-79
2022/04/14 07:54:55;;;;;;;28.35;13.43;;;14.50;99.90;;;;;;5076308;28;20472;-79
2022/04/14 07:57:21;;;;;;;31.75;13.85;;;14.30;99.90;;;;;;5075735;28;20017;-80
2022/04/14 07:59:47;;;;;;;25.90;13.05;;;14.00;99.90;;;;;;5077011;28;20388;-79
2022/04/14 08:02:13;;;;;;;25.27;13.30;;;14.10;99.90;;;;;;5074803;28;20104;-80
2022/04/14 08:04:39;;;;;;;32.28;12.65;;;14.00;99.90;;;;;;5073520;28;20519;-79
2022/04/14 08:07:05;;;;;;;24.25;12.25;;;14.00;99.90;;;;;;5055677;28;20033;-80
2022/04/14 08:09:31;;;;;;;25.08;12.15;;;14.10;99.90;;;;;;5073605;28;20437;-81
2022/04/14 08:11:56;;;;;;;23.58;12.05;;;14.30;99.90;;;;;;5072822;28;20481;-81
2022/04/14 08:14:22;;;;;;;28.02;12.77;;;14.60;99.90;;;;;;5073495;28;20024;-80
2022/04/14 08:16:48;;;;;;;27.98;13.80;;;14.60;99.90;;;;;;5073414;28;20052;-78
2022/04/14 08:19:13;;;;;;;24.98;13.07;;;14.50;99.90;;;;;;5073379;28;20483;-80
2022/04/14 08:21:39;;;;;;;28.17;13.93;;;14.50;99.90;;;;;;5073537;28;20025;-78
2022/04/14 08:24:06;;;;;;;21.20;12.25;;;14.50;99.90;;;;;;5073494;28;20062;-80
2022/04/14 08:26:31;;;;;;;26.40;13.38;;;14.60;99.90;;;;;;5074201;28;20033;-80
2022/04/14 08:28:58;;;;;;;19.85;12.68;;;15.00;99.90;;;;;;5074151;28;20039;-78
2022/04/14 08:31:24;;;;;;;21.27;12.02;;;15.40;99.90;;;;;;5056977;28;20103;-80
2022/04/14 08:33:50;;;;;;;26.95;11.52;;;15.80;99.90;;;;;;5073676;28;20099;-80
2022/04/14 08:36:16;;;;;;;21.45;11.23;;;15.90;99.90;;;;;;5073443;28;20461;-78
2022/04/14 08:38:44;;;;;;;23.80;12.23;;;16.10;99.90;;;;;;5073326;28;20043;-80
2022/04/14 08:41:14;;;;;;;27.88;11.80;;;15.80;99.90;;;;;;5072663;28;20024;-80
2022/04/14 08:43:57;;;;;;;20.20;11.50;;;15.80;99.90;;;;;;5073102;28;20059;-79
2022/04/14 08:46:24;;;;;;;21.33;9.93;;;16.10;99.90;;;;;;5072930;28;20401;-80
2022/04/14 08:48:50;;;;;;;25.48;10.95;;;15.90;99.90;;;;;;5054911;28;20461;-79
2022/04/14 08:51:18;;;;;;;25.17;10.73;;;16.10;99.90;;;;;;5072881;28;20108;-80
2022/04/14 08:53:44;;;;;;;20.00;10.20;;;15.70;99.90;;;;;;5072729;28;20036;-80
2022/04/14 08:56:11;;;;;;;24.27;10.82;;;15.60;99.90;;;;;;5072767;28;20489;-80
2022/04/14 08:58:37;;;;;;;21.27;10.60;;;15.80;99.90;;;;;;5073076;28;20056;-80
2022/04/14 09:01:03;;;;;;;20.35;10.73;;;16.00;99.90;;;;;;5072580;28;20039;-80
2022/04/14 09:03:31;;;;;;;20.90;11.43;;;15.90;99.90;;;;;;5072886;28;20468;-80
2022/04/14 09:05:57;;;;;;;18.52;10.23;;;15.60;99.90;;;;;;5072673;28;20041;-79
2022/04/14 09:08:23;;;;;;;27.40;10.90;;;15.80;99.90;;;;;;5072500;28;20381;-80
2022/04/14 09:10:49;;;;;;;22.90;13.02;;;15.90;99.90;;;;;;5073001;28;20031;-79
2022/04/14 09:13:15;;;;;;;18.63;11.65;;;16.00;99.90;;;;;;5037874;28;20473;-79
2022/04/14 09:15:41;;;;;;;26.10;11.65;;;16.00;99.90;;;;;;5072963;28;20028;-79
2022/04/14 09:18:08;;;;;;;25.75;11.63;;;16.30;99.90;;;;;;5055047;28;20033;-75
2022/04/14 09:20:42;;;;;;;20.80;12.38;;;16.30;99.90;;;;;;5054674;28;20545;-79
2022/04/14 09:23:15;;;;;;;27.08;13.77;;;16.50;99.90;;;;;;5075543;28;20376;-79
2022/04/14 09:25:42;;;;;;;22.92;13.18;;;16.70;99.90;;;;;;5076818;28;20151;-80
2022/04/14 09:28:13;;;;;;;23.35;12.10;;;17.10;99.90;;;;;;5058909;28;20064;-77
2022/04/14 09:30:56;;;;;;;24.90;11.73;;;17.30;99.90;;;;;;5076813;28;20039;-80
2022/04/14 09:33:22;;;;;;;29.10;13.88;;;17.20;99.90;;;;;;5076718;28;20032;-80
2022/04/14 09:36:04;;;;;;;31.92;12.90;;;17.00;99.90;;;;;;5076648;28;20500;-79
2022/04/14 09:38:47;;;;;;;;;;;17.10;99.90;;;;;;5076644;28;20107;-75
2022/04/14 09:41:30;;;;;;;27.92;12.13;;;17.50;99.90;;;;;;5076292;28;19931;-80
2022/04/14 09:43:58;;;;;;;27.23;14.02;;;17.50;99.90;;;;;;5076456;28;20025;-79
2022/04/14 09:46:25;;;;;;;25.42;13.75;;;17.60;99.90;;;;;;5076194;28;20111;-78
2022/04/14 09:49:26;;;;;;;25.30;12.23;;;18.10;99.90;;;;;;5076369;28;20024;-78
2022/04/14 09:51:52;;;;;;;24.13;12.07;;;18.00;99.90;;;;;;4994255;28;20129;-76
2022/04/14 09:54:19;;;;;;;30.15;12.77;;;17.60;99.90;;;;;;5059722;28;20119;-80
2022/04/14 09:56:53;;;;;;;23.05;14.10;;;17.90;99.90;;;;;;5076229;28;20123;-79
2022/04/14 09:59:20;;;;;;;25.88;12.23;;;17.90;99.90;;;;;;5076142;28;20521;-79
2022/04/14 10:01:48;;;;;;;17.83;10.93;;;17.90;99.90;;;;;;5075890;28;20036;-79
2022/04/14 10:04:34;;;;;;;25.38;10.90;;;17.60;99.90;;;;;;5075795;28;20060;-72
2022/04/14 10:07:02;;;;;;;21.88;11.82;;;18.00;99.90;;;;;;5075667;28;20053;-79
2022/04/14 10:09:30;;;;;;;23.02;11.57;;;18.20;99.90;;;;;;5075980;28;20017;-77
2022/04/14 10:11:56;;;;;;;18.58;9.75;;;18.30;99.90;;;;;;5058008;28;20064;-77
2022/04/14 10:14:24;;;;;;;18.77;10.45;;;18.10;99.90;;;;;;5075971;28;20063;-79
2022/04/14 10:16:50;;;;;;;29.85;10.95;;;18.40;99.90;;;;;;5075804;28;20388;-79
2022/04/14 10:19:17;;;;;;;18.35;9.60;;;18.60;99.90;;;;;;5075714;28;20035;-79
2022/04/14 10:21:44;;;;;;;15.93;7.65;;;18.80;99.90;;;;;;5075282;28;20387;-79
2022/04/14 10:24:12;;;;;;;15.05;7.68;;;18.60;99.90;;;;;;5075789;28;20040;-79
2022/04/14 10:26:38;;;;;;;14.25;7.00;;;18.90;99.90;;;;;;5075331;28;20102;-77
2022/04/14 10:29:06;;;;;;;13.32;6.88;;;18.90;99.90;;;;;;5057737;28;20025;-80
2022/04/14 10:31:36;;;;;;;11.32;6.88;;;18.70;99.90;;;;;;5075593;28;20444;-78
2022/04/14 10:34:04;;;;;;;11.55;6.50;;;19.00;99.90;;;;;;5074608;28;20074;-79
2022/04/14 10:36:41;;;;;;;14.18;6.53;;;19.30;99.90;;;;;;5057494;28;20036;-79
2022/04/14 10:39:11;;;;;;;12.43;5.90;;;20.00;99.90;;;;;;5075321;28;20056;-78
2022/04/14 10:41:44;;;;;;;12.63;5.60;;;19.90;99.90;;;;;;5075211;28;20090;-80
2022/04/14 10:44:10;;;;;;;9.40;5.25;;;19.10;99.90;;;;;;5075250;28;20028;-80
2022/04/14 10:46:46;;;;;;;11.77;5.85;;;19.30;99.90;;;;;;5075148;28;20029;-79
2022/04/14 10:49:16;;;;;;;13.93;6.90;;;20.10;99.90;;;;;;5054988;28;20457;-80
2022/04/14 10:51:43;;;;;;;20.55;8.63;;;20.40;99.90;;;;;;5054947;28;20032;-79
2022/04/14 10:54:11;;;;;;;13.30;7.63;;;19.80;99.90;;;;;;5055215;28;20606;-80
2022/04/14 10:56:37;;;;;;;12.23;7.10;;;20.20;99.90;;;;;;5055000;28;20032;-79
2022/04/14 10:59:11;;;;;;;17.35;7.30;;;20.70;99.90;;;;;;5054873;28;20108;-78
2022/04/14 11:01:46;;;;;;;14.05;7.35;;;20.80;99.90;;;;;;5037230;28;20040;-80
2022/04/14 11:04:25;;;;;;;13.07;7.75;;;20.80;99.90;;;;;;5073273;28;20370;-79
2022/04/14 11:06:57;;;;;;;12.02;7.72;;;20.00;99.90;;;;;;5074679;28;20060;-80
2022/04/14 11:09:59;;;;;;;13.50;7.85;;;19.20;99.90;;;;;;5074587;28;20531;-80
2022/04/14 11:12:32;;;;;;;22.60;10.52;;;19.40;99.90;;;;;;5074617;28;20078;-79
2022/04/14 11:14:57;;;;;;;11.52;7.63;;;20.30;99.90;;;;;;5074776;28;20047;-81
2022/04/14 11:17:37;;;;;;;13.13;8.43;;;20.50;99.90;;;;;;5074819;28;20552;-75
2022/04/14 11:20:22;;;;;;;14.98;8.70;;;20.90;99.80;;;;;;5074279;28;20068;-80
2022/04/14 11:23:08;;;;;;;15.02;8.73;;;21.70;98.40;;;;;;5074709;28;20556;-80
2022/04/14 11:25:41;;;;;;;17.08;8.90;;;21.30;99.30;;;;;;5074448;28;20484;-81
2022/04/14 11:28:28;;;;;;;22.73;10.13;;;21.60;99.90;;;;;;5056340;28;20028;-81
2022/04/14 11:30:58;;;;;;;17.25;8.00;;;22.00;98.70;;;;;;5074513;28;20075;-80
2022/04/14 11:33:32;;;;;;;10.82;7.13;;;21.80;97.70;;;;;;5073963;28;20452;-81
2022/04/14 11:36:14;;;;;;;12.63;6.03;;;21.50;97.80;;;;;;5074267;28;20048;-81
2022/04/14 11:38:56;;;;;;;15.43;7.13;;;20.80;98.70;;;;;;5074069;28;20036;-80
2022/04/14 11:41:41;;;;;;;11.52;6.97;;;20.90;99.10;;;;;;5074043;28;20093;-77
2022/04/14 11:44:21;;;;;;;11.90;7.30;;;20.80;98.20;;;;;;5074148;28;20036;-81
2022/04/14 11:46:50;;;;;;;22.58;9.07;;;20.50;99.40;;;;;;5072917;28;20503;-80
2022/04/14 11:49:21;;;;;;;16.63;8.90;;;20.00;99.90;;;;;;5073569;28;20035;-80
2022/04/14 11:51:54;;;;;;;15.05;8.60;;;19.90;99.90;;;;;;5073908;28;20029;-80
2022/04/14 11:54:21;;;;;;;13.00;7.90;;;19.90;99.90;;;;;;5073966;28;20020;-80
2022/04/14 11:56:54;;;;;;;12.73;7.20;;;20.50;99.90;;;;;;5073953;28;20025;-79
2022/04/14 11:59:32;;;;;;;13.38;5.78;;;20.20;99.70;;;;;;5056038;28;20081;-80
2022/04/14 12:02:10;;;;;;;11.40;6.28;;;19.80;99.20;;;;;;5073407;28;20035;-80
2022/04/14 12:04:44;;;;;;;15.40;6.32;;;19.90;99.50;;;;;;5073362;28;20501;-81
2022/04/14 12:07:10;;;;;;;20.85;6.30;;;20.60;98.80;;;;;;5073634;28;20362;-80
2022/04/14 12:09:42;;;;;;;11.98;5.13;;;21.30;98.70;;;;;;5073598;28;20028;-79
2022/04/14 12:12:09;;;;;;;9.25;5.53;;;21.50;97.20;;;;;;5073483;28;20028;-80
2022/04/14 12:14:39;;;;;;;8.38;5.32;;;21.10;97.40;;;;;;5073511;28;20460;-81
2022/04/14 12:17:07;;;;;;;12.93;6.75;;;21.00;97.60;;;;;;5073408;28;20078;-80
2022/04/14 12:19:41;;;;;;;13.27;5.78;;;20.70;98.00;;;;;;5073428;28;20047;-80
2022/04/14 12:22:07;;;;;;;6.75;3.28;;;20.10;98.50;;;;;;5073452;28;20361;-81
2022/04/14 12:24:33;;;;;;;10.00;4.00;;;20.10;97.60;;;;;;5073312;28;20040;-80
2022/04/14 12:26:59;;;;;;;7.38;3.25;;;19.90;98.00;;;;;;5073194;28;20127;-81
2022/04/14 12:29:26;;;;;;;11.35;2.97;;;19.80;98.00;;;;;;5055361;28;20032;-81
2022/04/14 12:32:09;;;;;;;6.35;3.42;;;19.70;97.40;;;;;;5073084;28;20033;-81